Egyptair A320 at Nairobi on Jun 6th 2012, veered off runway on landing

Last Update: June 14, 2012 / 11:22:43 GMT/Zulu time

Bookmark this article
Incident Facts

Date of incident
Jun 6, 2012

Airline
Egyptair

Flight number
MS-849

Departure
Cairo, Egypt

Destination
Nairobi, Kenya

Aircraft Registration
SU-GBG

Aircraft Type
Airbus A320

ICAO Type Designator
A320

An Egyptair Airbus A320-200, registration SU-GBG performing flight MS-849 (dep Jun 5th) from Cairo (Egypt) to Nairobi (Kenya) with 123 passengers and 7 crew, landed on Nairobi's runway 06 at 03:36L (00:36Z) but veered right off the runway and came to a stop about half way down the runway with all gear on soft ground. No injuries occurred. The passengers disembarked via mobile stairs onto the runway and were bussed to the terminal.

The airport was closed until about 12:00L until the aircraft was moved back onto paved surface and towed to the apron. Flights arriving in the meantime were diverted to Mombasa (Kenya) and Entebbe (Uganda).

An aviation professional observing the incident from the ground reported the aircraft appeared to land at an unusually high speed though he was aware of the higher speeds above ground due to the high altitude of the aerodrome, all landing lights including the nose wheel landing light were aligned with the longitudinal axis of the aircraft (editorial note: the nose wheel was properly turned straight for landing). The aircraft appeared to float before it touched down with a thump at the end or just past the end of the touch down zone. The aircraft rolled out, the observer didn't initially recognize the aircraft had veered off the runway near taxiway L (the last taxiway off runway 06 to the right) until after the aircraft did not move and the crew requested a "follow me vehicle and a tow bar".

The French BEA reported on Jun 14th that the aircraft veered off runway 06 and came to a stop about 2000 meters/6600 feet from the threshold (editorial note: about half way between taxiways F and E) with all gear on soft ground. There was visible damage to the left engine's (V2500) air intake and fan blades. Kenya's AIB is investigating.

Nairobi offers a single runway 06/24 with 4115 meters/13500 feet length at an elevation of 5330 feet/1625 meters.

Metars:
HKJK 060200Z 00000KT 9999 FEW016 13/11 Q1022 NOSIG
HKJK 060140Z 00000KT 9999 FEW016 SCT090 13/11 Q1022 NOSIG
HKJK 060100Z 00000KT 9999 FEW016 SCT090 14/12 Q1022 NOSIG
HKJK 060030Z 00000KT 9999 FEW016 13/12 Q1022 NOSIG
HKJK 060000Z 00000KT 9999 FEW007 SCT090 14/12 Q1022 NOSIG
HKJK 052330Z 00000KT 9999 FEW017 BKN090 15/12 Q1022 NOSIG
HKJK 052300Z 00000KT 9999 FEW017 BKN090 16/12 Q1023 NOSIG
HKJK 052230Z 00000KT 9999 FEW017 BKN090 15/12 Q1023 NOSIG
HKJK 052200Z 00000KT 9999 FEW018 BKN090 16/13 Q1023 NOSIG
HKJK 052130Z 04004KT 9999 FEW018 BKN090 16/12 Q1023 NOSIG
HKJK 052100Z 06010KT 9999 FEW019 BKN090 17/11 Q1023 NOSIG
Incident Facts

Date of incident
Jun 6, 2012

Airline
Egyptair

Flight number
MS-849

Departure
Cairo, Egypt

Destination
Nairobi, Kenya

Aircraft Registration
SU-GBG

Aircraft Type
Airbus A320

ICAO Type Designator
A320

This article is published under license from Avherald.com. © of text by Avherald.com.
Article source

You can read 2 more free articles without a subscription.

Subscribe now and continue reading without any limits!

Are you a subscriber? Login
Subscribe

Read unlimited articles and receive our daily update briefing. Gain better insights into what is happening in commercial aviation safety.

Free newsletter

Want to know more and stay ahead? Get our free weekly newsletter and join 5461 existing subscribers.

By subscribing, you accept our terms and conditions and confirm that you've read our privacy policy.

Send tip

Support AeroInside by sending a small tip amount.

Related articles

Newest articles

Subscribe today

Are you researching aviation incidents? Get access to AeroInside Insights, unlimited read access and receive the daily newsletter.

Pick your plan and subscribe

Partner

Blockaviation logo

A new way to document and demonstrate airworthiness compliance and aircraft value. Find out more.

Virtual Speech logo

ELITE Simulation Solutions is a leading global provider of Flight Simulation Training Devices, IFR training software as well as flight controls and related services. Find out more.

Get updates

Never miss an article from AeroInside. Subscribe to our free weekly newsletter and join 5461 existing subscribers.

By subscribing, you accept our terms and conditions and that you've read our privacy policy.

AeroInside Blog
Popular aircraft
Airbus A320
Boeing 737-800
Boeing 737-800 MAX
Popular airlines
American Airlines
United
Delta
Air Canada
Lufthansa
British Airways